createdAt,value
2024-05-09T00:01:16.449Z,2.77
2024-05-09T00:03:48.157Z,3.23
2024-05-09T00:06:20.513Z,2.83
2024-05-09T00:08:51.947Z,2.90
2024-05-09T00:11:23.578Z,2.90
2024-05-09T00:13:55.290Z,2.90
2024-05-09T00:16:26.847Z,2.73
2024-05-09T00:18:58.421Z,2.70
2024-05-09T00:21:30.008Z,2.90
2024-05-09T00:24:01.480Z,2.60
2024-05-09T00:26:33.112Z,2.73
2024-05-09T00:29:04.655Z,2.93
2024-05-09T00:31:36.142Z,2.90
2024-05-09T00:34:07.675Z,2.50
2024-05-09T00:36:39.200Z,3.10
2024-05-09T00:39:10.634Z,3.13
2024-05-09T00:41:42.333Z,2.53
2024-05-09T00:44:13.951Z,2.87
2024-05-09T00:46:45.512Z,2.73
2024-05-09T00:49:17.167Z,2.43
2024-05-09T00:51:49.903Z,2.90
2024-05-09T00:54:22.447Z,2.60
2024-05-09T00:56:54.372Z,2.63
2024-05-09T00:59:26.025Z,2.53
2024-05-09T01:01:59.351Z,2.40
2024-05-09T01:04:30.945Z,2.83
2024-05-09T01:07:02.466Z,2.93
2024-05-09T01:09:34.686Z,2.73
2024-05-09T01:12:06.536Z,2.77
2024-05-09T01:14:38.177Z,3.17
2024-05-09T01:17:09.820Z,3.00
2024-05-09T01:19:42.231Z,2.77
2024-05-09T01:22:13.786Z,3.13
2024-05-09T01:24:45.253Z,4.20
2024-05-09T01:27:16.692Z,3.73
2024-05-09T01:29:48.156Z,3.60
2024-05-09T01:32:19.712Z,3.63
2024-05-09T01:34:51.296Z,3.47
2024-05-09T01:37:23.691Z,3.33
2024-05-09T01:39:55.131Z,4.03
2024-05-09T01:42:27.008Z,3.70
2024-05-09T01:44:58.487Z,4.03
2024-05-09T01:47:30.259Z,2.83
2024-05-09T01:50:02.141Z,3.50
2024-05-09T01:52:38.476Z,3.53
2024-05-09T01:57:41.324Z,3.10
2024-05-09T02:00:15.722Z,2.80
2024-05-09T02:02:50.271Z,2.87
2024-05-09T02:05:21.985Z,3.33
2024-05-09T02:07:53.595Z,3.47
2024-05-09T02:10:31.771Z,3.63
2024-05-09T02:13:05.864Z,3.20
2024-05-09T02:15:37.361Z,3.47
2024-05-09T02:18:09.972Z,3.30
2024-05-09T02:20:43.300Z,3.40
2024-05-09T02:23:15.440Z,3.60
2024-05-09T02:25:47.027Z,3.60
2024-05-09T02:28:20.774Z,3.27
2024-05-09T02:30:52.212Z,3.83
2024-05-09T02:33:23.949Z,3.33
2024-05-09T02:35:55.520Z,3.67
2024-05-09T02:38:27.118Z,3.27
2024-05-09T02:40:58.617Z,3.00
2024-05-09T02:43:30.060Z,3.20
2024-05-09T02:46:01.713Z,3.67
2024-05-09T02:48:33.228Z,3.00
2024-05-09T02:51:04.919Z,3.70
2024-05-09T02:53:36.465Z,3.70
2024-05-09T02:56:08.010Z,3.53
2024-05-09T02:58:39.569Z,3.80
2024-05-09T03:01:11.232Z,3.97
2024-05-09T03:03:45.182Z,3.37
2024-05-09T03:06:16.707Z,3.67
2024-05-09T03:08:48.469Z,3.60
2024-05-09T03:11:24.034Z,3.37
2024-05-09T03:13:55.624Z,3.97
2024-05-09T03:16:27.386Z,4.03
2024-05-09T03:18:58.867Z,3.33
2024-05-09T03:21:30.351Z,3.37
2024-05-09T03:24:02.862Z,3.10
2024-05-09T03:26:34.466Z,3.37
2024-05-09T03:29:05.998Z,3.20
2024-05-09T03:31:38.876Z,3.60
2024-05-09T03:34:11.299Z,3.53
2024-05-09T03:36:45.600Z,3.40
2024-05-09T03:39:17.137Z,3.20
2024-05-09T03:41:48.583Z,2.87
2024-05-09T03:44:20.080Z,3.57
2024-05-09T03:46:51.700Z,3.80
2024-05-09T03:49:23.251Z,3.50
2024-05-09T03:51:54.754Z,3.43
2024-05-09T03:54:27.493Z,4.00
2024-05-09T03:56:58.985Z,3.40
2024-05-09T03:59:30.516Z,3.70
2024-05-09T04:02:02.201Z,3.13
2024-05-09T04:04:33.747Z,2.87
2024-05-09T04:07:05.326Z,4.07
2024-05-09T04:09:36.788Z,3.43
2024-05-09T04:12:08.403Z,3.37
2024-05-09T04:14:40.012Z,3.60
2024-05-09T04:17:11.620Z,3.27
2024-05-09T04:19:43.068Z,3.00
2024-05-09T04:22:14.508Z,3.40
2024-05-09T04:24:45.983Z,3.30
2024-05-09T04:27:17.424Z,3.53
2024-05-09T04:29:48.879Z,3.30
2024-05-09T04:32:20.434Z,3.67
2024-05-09T04:34:52.033Z,3.90
2024-05-09T04:37:23.533Z,3.30
2024-05-09T04:39:55.116Z,3.43
2024-05-09T04:42:26.601Z,3.50
2024-05-09T04:44:58.810Z,3.90
2024-05-09T04:47:30.590Z,3.37
2024-05-09T04:50:02.586Z,3.10
2024-05-09T04:52:34.108Z,3.67
2024-05-09T04:55:06.052Z,3.50
2024-05-09T04:57:37.513Z,3.57
2024-05-09T05:00:14.732Z,3.43
2024-05-09T05:02:53.253Z,3.20
2024-05-09T05:05:24.874Z,3.20
2024-05-09T05:07:56.838Z,2.97
2024-05-09T05:10:33.998Z,3.47
2024-05-09T05:13:19.995Z,3.23
2024-05-09T05:15:56.829Z,3.47
2024-05-09T05:18:29.628Z,3.07
2024-05-09T05:21:01.334Z,3.03
2024-05-09T05:23:32.952Z,3.47
2024-05-09T05:26:05.279Z,3.00
2024-05-09T05:28:36.831Z,3.03
2024-05-09T05:31:08.272Z,3.87
2024-05-09T05:33:39.780Z,3.60
2024-05-09T05:36:11.291Z,3.67
2024-05-09T05:38:43.015Z,3.70
2024-05-09T05:41:14.589Z,4.00
2024-05-09T05:43:46.158Z,3.73
2024-05-09T05:46:17.642Z,4.23
2024-05-09T05:48:49.427Z,3.50
2024-05-09T05:51:21.087Z,3.93
2024-05-09T05:53:52.660Z,4.10
2024-05-09T05:56:24.194Z,4.00
2024-05-09T05:58:55.702Z,4.33
2024-05-09T06:01:27.289Z,4.00
2024-05-09T06:03:59.048Z,3.77
2024-05-09T06:06:30.505Z,4.37
2024-05-09T06:09:01.954Z,3.80
2024-05-09T06:11:33.486Z,3.83
2024-05-09T06:14:05.543Z,3.50
2024-05-09T06:16:37.130Z,3.37
2024-05-09T06:19:08.658Z,3.40
2024-05-09T06:21:40.160Z,2.70
2024-05-09T06:24:11.690Z,2.60
2024-05-09T06:26:44.374Z,2.93
2024-05-09T06:29:15.900Z,2.53
2024-05-09T06:31:47.472Z,2.87
2024-05-09T06:34:19.479Z,3.03
2024-05-09T06:36:50.981Z,2.30
2024-05-09T06:39:23.472Z,2.73
2024-05-09T06:41:54.938Z,2.90
2024-05-09T06:44:26.852Z,2.47
2024-05-09T06:46:59.846Z,2.70
2024-05-09T06:49:32.738Z,2.77
2024-05-09T06:52:04.623Z,2.43
2024-05-09T06:54:37.638Z,2.70
2024-05-09T06:57:09.117Z,2.80
2024-05-09T06:59:40.679Z,2.97
2024-05-09T07:02:12.290Z,3.03
2024-05-09T07:04:43.800Z,2.67
2024-05-09T07:07:15.235Z,2.60
2024-05-09T07:09:46.727Z,2.67
2024-05-09T07:12:18.362Z,2.57
2024-05-09T07:14:50.510Z,2.67
2024-05-09T07:17:22.011Z,3.30
2024-05-09T07:19:53.793Z,2.47
2024-05-09T07:22:25.527Z,2.77
2024-05-09T07:24:57.138Z,2.93
2024-05-09T07:27:28.683Z,2.80
2024-05-09T07:30:00.819Z,2.90
2024-05-09T07:32:32.478Z,3.10
2024-05-09T07:35:04.196Z,2.87
2024-05-09T07:37:35.702Z,2.33
2024-05-09T07:40:11.948Z,2.70
2024-05-09T07:42:47.143Z,2.95
2024-05-09T07:53:37.273Z,2.85
2024-05-09T07:56:06.402Z,2.65
2024-05-09T07:58:38.645Z,2.63
2024-05-09T08:01:10.139Z,2.30
2024-05-09T08:03:42.907Z,2.67
2024-05-09T08:06:14.565Z,2.70
2024-05-09T08:08:47.025Z,2.40
2024-05-09T08:11:20.354Z,2.75
2024-05-09T08:13:51.898Z,3.00
2024-05-09T08:16:23.828Z,3.03
2024-05-09T08:18:55.522Z,2.95
2024-05-09T08:21:27.054Z,3.60
2024-05-09T08:23:58.511Z,2.92
2024-05-09T08:26:30.052Z,3.35
2024-05-09T08:29:01.512Z,2.80
2024-05-09T08:31:37.987Z,2.90
2024-05-09T08:34:10.046Z,2.60
2024-05-09T08:36:42.331Z,2.40
2024-05-09T08:39:13.834Z,2.03
2024-05-09T08:41:49.561Z,2.33
2024-05-09T08:46:54.258Z,2.33
2024-05-09T08:49:26.970Z,2.35
2024-05-09T08:51:58.722Z,2.38
2024-05-09T08:54:30.555Z,2.38
2024-05-09T08:57:04.730Z,1.73
2024-05-09T08:59:42.604Z,1.90
2024-05-09T09:02:14.876Z,1.75
2024-05-09T09:05:03.065Z,1.92
2024-05-09T09:07:35.136Z,2.35
2024-05-09T09:10:08.580Z,2.22
2024-05-09T09:12:40.555Z,2.45
2024-05-09T09:15:12.163Z,1.90
2024-05-09T09:17:58.159Z,1.83
2024-05-09T09:20:36.410Z,1.67
2024-05-09T09:23:08.869Z,2.15
2024-05-09T09:25:40.714Z,2.40
2024-05-09T09:28:12.618Z,2.50
2024-05-09T09:30:44.430Z,2.90
2024-05-09T09:33:17.416Z,1.98
2024-05-09T09:35:48.914Z,2.25
2024-05-09T09:38:23.200Z,2.88
2024-05-09T09:40:54.776Z,3.10
2024-05-09T09:43:26.781Z,2.33
2024-05-09T09:46:00.681Z,2.50
2024-05-09T09:48:33.859Z,2.78
2024-05-09T09:51:07.762Z,2.75
2024-05-09T09:53:39.929Z,2.50
2024-05-09T09:56:11.956Z,2.13
2024-05-09T09:58:43.971Z,2.83
2024-05-09T10:01:15.525Z,2.55
2024-05-09T10:03:47.485Z,2.90
2024-05-09T10:06:19.518Z,3.05
2024-05-09T10:08:51.552Z,2.33
2024-05-09T10:11:23.831Z,3.03
2024-05-09T10:13:57.360Z,2.70
2024-05-09T10:16:32.392Z,3.30
2024-05-09T10:19:04.139Z,3.10
2024-05-09T10:21:46.267Z,3.03
2024-05-09T10:24:19.064Z,3.35
2024-05-09T10:26:56.568Z,3.50
2024-05-09T10:29:28.125Z,3.33
2024-05-09T10:31:59.686Z,3.08
2024-05-09T10:34:34.638Z,3.00
2024-05-09T10:37:06.257Z,3.22
2024-05-09T10:39:38.806Z,2.72
2024-05-09T10:42:10.333Z,2.92
2024-05-09T10:44:42.514Z,3.03
2024-05-09T10:47:15.021Z,3.10
2024-05-09T10:49:47.015Z,2.85
2024-05-09T10:52:22.438Z,3.38
2024-05-09T10:54:54.434Z,2.50
2024-05-09T10:57:27.090Z,3.40
2024-05-09T10:59:59.605Z,2.92
2024-05-09T11:02:31.785Z,3.58
2024-05-09T11:05:03.542Z,3.90
2024-05-09T11:07:35.118Z,3.08
2024-05-09T11:10:09.850Z,2.95
2024-05-09T11:12:45.909Z,3.40
2024-05-09T11:15:17.455Z,3.17
2024-05-09T11:17:49.058Z,3.35
2024-05-09T11:20:26.924Z,3.63
2024-05-09T11:23:06.088Z,3.50
2024-05-09T11:25:37.530Z,3.83
2024-05-09T11:28:09.089Z,4.10
2024-05-09T11:30:40.742Z,3.25
2024-05-09T11:33:13.405Z,3.53
2024-05-09T11:35:46.485Z,3.42
2024-05-09T11:38:17.967Z,3.33
2024-05-09T11:40:49.441Z,3.65
2024-05-09T11:43:21.144Z,3.22
2024-05-09T11:45:53.165Z,2.90
2024-05-09T11:48:25.795Z,3.33
2024-05-09T11:50:58.030Z,3.30
2024-05-09T11:53:29.585Z,3.03
2024-05-09T11:56:01.138Z,2.63
2024-05-09T11:58:34.636Z,3.10
2024-05-09T12:01:06.492Z,3.17
2024-05-09T12:03:38.345Z,2.67
2024-05-09T12:06:10.194Z,3.15
2024-05-09T12:08:41.738Z,3.20
2024-05-09T12:11:13.904Z,2.72
2024-05-09T12:13:45.443Z,2.80
2024-05-09T12:16:17.126Z,2.70
2024-05-09T12:18:48.864Z,2.65
2024-05-09T12:21:20.443Z,2.92
2024-05-09T12:23:51.975Z,2.15
2024-05-09T12:26:23.557Z,2.60
2024-05-09T12:28:54.996Z,2.90
2024-05-09T12:31:26.655Z,2.75
2024-05-09T12:34:00.291Z,2.75
2024-05-09T12:36:31.964Z,2.40
2024-05-09T12:39:06.220Z,2.90
2024-05-09T12:41:37.692Z,3.10
2024-05-09T12:44:09.120Z,2.40
2024-05-09T12:46:40.660Z,2.42
2024-05-09T12:49:13.807Z,3.05
2024-05-09T12:51:47.127Z,2.63
2024-05-09T12:54:18.627Z,2.50
2024-05-09T12:56:50.607Z,2.58
2024-05-09T12:59:22.082Z,2.30
2024-05-09T13:01:53.585Z,2.22
2024-05-09T13:04:25.381Z,2.22
2024-05-09T13:06:57.587Z,2.40
2024-05-09T13:09:29.183Z,2.00
2024-05-09T13:12:00.751Z,2.28
2024-05-09T13:14:32.270Z,2.55
2024-05-09T13:17:04.159Z,3.35
2024-05-09T13:19:35.662Z,2.78
2024-05-09T13:22:07.222Z,2.38
2024-05-09T13:24:38.734Z,2.78
2024-05-09T13:27:10.338Z,2.50
2024-05-09T13:29:44.301Z,2.03
2024-05-09T13:32:15.988Z,2.15
2024-05-09T13:34:47.585Z,2.10
2024-05-09T13:37:19.206Z,1.90
2024-05-09T13:39:50.923Z,2.40
2024-05-09T13:42:22.443Z,1.88
2024-05-09T13:44:54.339Z,1.90
2024-05-09T13:47:25.927Z,2.20
2024-05-09T13:49:57.862Z,2.38
2024-05-09T13:52:29.288Z,2.38
2024-05-09T13:55:00.795Z,2.30
2024-05-09T13:57:32.391Z,2.20
2024-05-09T14:00:07.013Z,1.88
2024-05-09T14:02:39.496Z,2.15
2024-05-09T14:05:11.261Z,1.95
2024-05-09T14:07:43.934Z,2.40
2024-05-09T14:10:22.967Z,2.00
2024-05-09T14:13:01.136Z,2.08
2024-05-09T14:15:32.899Z,2.30
2024-05-09T14:18:04.945Z,2.42
2024-05-09T14:20:36.474Z,2.28
2024-05-09T14:23:08.065Z,1.80
2024-05-09T14:25:42.707Z,2.17
2024-05-09T14:28:15.427Z,2.45
2024-05-09T14:30:47.014Z,2.25
2024-05-09T14:33:23.526Z,2.15
2024-05-09T14:35:55.459Z,2.13
2024-05-09T14:38:27.309Z,2.60
2024-05-09T14:40:59.013Z,1.92
2024-05-09T14:43:30.766Z,2.45
2024-05-09T14:46:02.446Z,2.72
2024-05-09T14:48:34.130Z,2.30
2024-05-09T14:51:05.932Z,2.40
2024-05-09T14:53:37.406Z,2.17
2024-05-09T14:56:09.293Z,2.70
2024-05-09T14:58:40.917Z,4.53
2024-05-09T15:01:12.477Z,4.40
2024-05-09T15:03:44.261Z,4.43
2024-05-09T15:06:17.040Z,4.00
2024-05-09T15:08:56.730Z,4.35
2024-05-09T15:11:28.374Z,4.32
2024-05-09T15:13:59.882Z,3.92
2024-05-09T15:16:31.490Z,4.30
2024-05-09T15:19:03.532Z,5.18
2024-05-09T15:21:35.171Z,3.80
2024-05-09T15:24:06.707Z,4.35
2024-05-09T15:26:38.290Z,4.57
2024-05-09T15:29:10.173Z,4.25
2024-05-09T15:31:41.724Z,3.47
2024-05-09T15:34:13.303Z,3.42
2024-05-09T15:36:47.895Z,3.65
2024-05-09T15:39:19.441Z,4.22
2024-05-09T15:41:56.058Z,4.32
2024-05-09T15:44:27.639Z,4.32
2024-05-09T15:46:59.123Z,3.92
2024-05-09T15:49:30.901Z,4.10
2024-05-09T15:52:02.614Z,4.38
2024-05-09T15:54:34.156Z,4.30
2024-05-09T15:57:07.126Z,5.05
2024-05-09T15:59:38.860Z,4.38
2024-05-09T16:02:11.543Z,4.10
2024-05-09T16:04:43.476Z,4.43
2024-05-09T16:07:15.110Z,4.72
2024-05-09T16:09:46.599Z,4.43
2024-05-09T16:12:18.099Z,5.47
2024-05-09T16:14:50.795Z,4.80
2024-05-09T16:17:22.900Z,6.10
2024-05-09T16:19:54.712Z,6.30
2024-05-09T16:22:26.498Z,6.13
2024-05-09T16:24:58.082Z,6.68
2024-05-09T16:27:29.668Z,6.68
2024-05-09T16:30:04.070Z,7.22
2024-05-09T16:32:40.801Z,7.47
2024-05-09T16:35:12.684Z,7.55
2024-05-09T16:37:44.215Z,7.43
2024-05-09T16:40:24.950Z,7.13
2024-05-09T16:43:05.898Z,7.78
2024-05-09T16:45:39.394Z,6.63
2024-05-09T16:48:12.199Z,6.87
2024-05-09T16:50:44.111Z,7.10
2024-05-09T16:53:15.735Z,6.47
2024-05-09T16:55:47.256Z,7.47
2024-05-09T16:58:19.269Z,7.35
2024-05-09T17:00:51.161Z,7.50
2024-05-09T17:03:23.595Z,6.97
2024-05-09T17:05:55.529Z,6.83
2024-05-09T17:08:27.087Z,7.13
2024-05-09T17:10:58.599Z,6.83
2024-05-09T17:13:32.220Z,7.47
2024-05-09T17:16:04.220Z,6.37
2024-05-09T17:18:35.999Z,6.27
2024-05-09T17:21:07.552Z,6.70
2024-05-09T17:23:39.415Z,6.70
2024-05-09T17:26:11.103Z,6.97
2024-05-09T17:28:43.002Z,6.40
2024-05-09T17:31:14.559Z,6.60
2024-05-09T17:33:46.503Z,5.87
2024-05-09T17:36:19.740Z,6.63
2024-05-09T17:38:51.265Z,6.10
2024-05-09T17:41:22.726Z,6.07
2024-05-09T17:43:54.326Z,7.53
2024-05-09T17:46:25.966Z,7.30
2024-05-09T17:49:00.410Z,6.57
2024-05-09T17:51:32.507Z,6.90
2024-05-09T17:54:03.960Z,6.27
2024-05-09T17:56:35.497Z,5.73
2024-05-09T17:59:10.029Z,6.03
2024-05-09T18:01:42.925Z,5.93
2024-05-09T18:04:14.573Z,6.27
2024-05-09T18:06:46.184Z,7.60
2024-05-09T18:09:17.731Z,7.47
2024-05-09T18:11:49.293Z,5.60
2024-05-09T18:14:20.802Z,6.20
2024-05-09T18:16:52.311Z,5.93
2024-05-09T18:19:23.835Z,4.43
2024-05-09T18:21:55.466Z,5.27
2024-05-09T18:24:26.945Z,5.87
2024-05-09T18:26:59.194Z,5.03
2024-05-09T18:29:30.785Z,5.97
2024-05-09T18:32:02.287Z,5.17
2024-05-09T18:34:33.843Z,5.13
2024-05-09T18:37:05.384Z,4.60
2024-05-09T18:39:37.017Z,4.47
2024-05-09T18:42:08.712Z,4.73
2024-05-09T18:44:40.272Z,5.27
2024-05-09T18:47:11.820Z,4.80
2024-05-09T18:49:43.489Z,4.23
2024-05-09T18:52:15.558Z,4.70
2024-05-09T18:54:47.751Z,5.10
2024-05-09T18:57:19.248Z,3.90
2024-05-09T18:59:51.061Z,4.33
2024-05-09T19:02:22.675Z,4.87
2024-05-09T19:04:54.349Z,4.50
2024-05-09T19:07:25.898Z,3.83
2024-05-09T19:09:57.525Z,4.17
2024-05-09T19:12:29.023Z,4.10
2024-05-09T19:15:00.451Z,3.97
2024-05-09T19:17:32.197Z,4.30
2024-05-09T19:20:05.751Z,4.20
2024-05-09T19:22:37.466Z,4.00
2024-05-09T19:25:08.998Z,3.80
2024-05-09T19:27:42.339Z,3.30
2024-05-09T19:30:21.076Z,3.30
2024-05-09T19:32:57.159Z,4.13
2024-05-09T19:35:28.678Z,4.20
2024-05-09T19:38:00.597Z,3.50
2024-05-09T19:40:33.917Z,4.10
2024-05-09T19:43:07.048Z,3.67
2024-05-09T19:45:38.888Z,3.37
2024-05-09T19:48:10.824Z,3.40
2024-05-09T19:50:44.507Z,2.90
2024-05-09T19:53:16.641Z,3.07
2024-05-09T19:55:48.152Z,4.07
2024-05-09T19:58:20.895Z,3.63
2024-05-09T20:00:52.535Z,3.50
2024-05-09T20:03:24.116Z,3.87
2024-05-09T20:05:55.786Z,3.37
2024-05-09T20:08:27.319Z,3.60
2024-05-09T20:10:58.824Z,3.77
2024-05-09T20:13:30.327Z,4.00
2024-05-09T20:16:01.844Z,3.60
2024-05-09T20:18:33.534Z,4.10
2024-05-09T20:21:06.482Z,4.43
2024-05-09T20:23:38.126Z,4.17
2024-05-09T20:26:09.680Z,3.93
2024-05-09T20:28:41.532Z,4.47
2024-05-09T20:31:20.863Z,3.73
2024-05-09T20:33:52.690Z,4.50
2024-05-09T20:36:24.192Z,5.77
2024-05-09T20:38:55.663Z,4.50
2024-05-09T20:41:27.648Z,4.47
2024-05-09T20:44:02.056Z,4.67
2024-05-09T20:46:33.542Z,4.60
2024-05-09T20:49:05.232Z,5.03
2024-05-09T20:51:37.017Z,4.43
2024-05-09T20:54:08.479Z,5.10
2024-05-09T20:56:40.078Z,4.80
2024-05-09T20:59:11.886Z,4.03
2024-05-09T21:01:48.084Z,4.67
2024-05-09T21:04:20.453Z,4.53
2024-05-09T21:06:52.087Z,4.40
2024-05-09T21:09:25.693Z,4.37
2024-05-09T21:11:57.288Z,5.13
2024-05-09T21:14:28.803Z,4.30
2024-05-09T21:17:00.519Z,5.40
2024-05-09T21:19:32.061Z,6.23
2024-05-09T21:22:03.681Z,4.60
2024-05-09T21:24:35.327Z,5.20
2024-05-09T21:27:06.920Z,6.57
2024-05-09T21:29:38.397Z,6.10
2024-05-09T21:32:09.973Z,6.70
2024-05-09T21:34:41.671Z,7.23
2024-05-09T21:37:13.295Z,5.70
2024-05-09T21:39:44.841Z,5.77
2024-05-09T21:42:16.330Z,6.70
2024-05-09T21:44:47.937Z,7.00
2024-05-09T21:47:19.431Z,6.30
2024-05-09T21:49:50.946Z,6.83
2024-05-09T21:52:22.551Z,7.03
2024-05-09T21:54:54.036Z,6.33
2024-05-09T21:57:25.583Z,6.37
2024-05-09T21:59:57.036Z,5.93
2024-05-09T22:02:28.772Z,6.27
2024-05-09T22:05:00.598Z,6.40
2024-05-09T22:07:32.227Z,6.43
2024-05-09T22:10:06.398Z,6.80
2024-05-09T22:12:41.290Z,6.20
2024-05-09T22:15:12.769Z,7.00
2024-05-09T22:17:44.412Z,6.60
2024-05-09T22:20:22.257Z,6.23
2024-05-09T22:23:00.388Z,5.13
2024-05-09T22:25:32.578Z,5.50
2024-05-09T22:28:05.376Z,5.60
2024-05-09T22:30:39.842Z,5.60
2024-05-09T22:33:12.579Z,6.07
2024-05-09T22:35:44.358Z,5.57
2024-05-09T22:38:15.855Z,5.27
2024-05-09T22:40:49.598Z,5.50
2024-05-09T22:43:23.917Z,6.13
2024-05-09T22:45:56.894Z,6.00
2024-05-09T22:48:28.497Z,5.63
2024-05-09T22:51:00.588Z,5.73
2024-05-09T22:53:32.047Z,5.20
2024-05-09T22:56:03.652Z,5.67
2024-05-09T22:58:35.121Z,5.50
2024-05-09T23:01:07.122Z,5.67
2024-05-09T23:03:38.800Z,4.83
2024-05-09T23:06:10.369Z,5.73
2024-05-09T23:08:41.795Z,5.83
2024-05-09T23:11:13.573Z,5.23
2024-05-09T23:13:45.230Z,5.40
2024-05-09T23:16:16.742Z,5.67
2024-05-09T23:18:48.324Z,5.70
2024-05-09T23:21:19.821Z,5.20
2024-05-09T23:23:51.239Z,5.73
2024-05-09T23:26:22.720Z,5.70
2024-05-09T23:28:54.162Z,4.97
2024-05-09T23:31:25.700Z,5.43
2024-05-09T23:33:57.549Z,5.00
2024-05-09T23:36:29.311Z,4.80
2024-05-09T23:39:00.803Z,5.43
2024-05-09T23:41:32.297Z,5.33
2024-05-09T23:44:03.860Z,5.47
2024-05-09T23:46:35.567Z,5.27
2024-05-09T23:49:07.202Z,5.67
2024-05-09T23:51:38.831Z,5.50
2024-05-09T23:54:10.335Z,6.17
2024-05-09T23:56:41.779Z,5.90
2024-05-09T23:59:13.221Z,6.07
